createdAt,value
2022-11-20T00:00:28.162Z,15
2022-11-20T00:02:58.576Z,15
2022-11-20T00:05:28.881Z,12
2022-11-20T00:07:59.930Z,12
2022-11-20T00:10:30.600Z,12
2022-11-20T00:13:01.326Z,13
2022-11-20T00:15:31.669Z,12
2022-11-20T00:18:02.089Z,8
2022-11-20T00:20:32.880Z,8
2022-11-20T00:23:03.376Z,12
2022-11-20T00:25:35.038Z,12
2022-11-20T00:28:05.283Z,11
2022-11-20T00:30:36.242Z,11
2022-11-20T00:33:06.940Z,12
2022-11-20T00:35:37.588Z,8
2022-11-20T00:38:08.593Z,12
2022-11-20T00:40:39.639Z,12
2022-11-20T00:43:10.252Z,12
2022-11-20T00:45:41.009Z,12
2022-11-20T00:48:11.560Z,12
2022-11-20T00:50:42.983Z,16
2022-11-20T00:53:13.378Z,16
2022-11-20T00:55:44.164Z,16
2022-11-20T00:58:15.039Z,16
2022-11-20T01:00:46.102Z,15
2022-11-20T01:03:17.288Z,12
2022-11-20T01:05:46.416Z,12
2022-11-20T01:08:17.396Z,16
2022-11-20T01:10:48.559Z,12
2022-11-20T01:13:24.418Z,12
2022-11-20T01:15:50.955Z,10
2022-11-20T01:18:21.688Z,8
2022-11-20T01:20:52.587Z,12
2022-11-20T01:23:23.328Z,4
2022-11-20T01:25:54.115Z,8
2022-11-20T01:28:24.809Z,8
2022-11-20T01:30:55.887Z,16
2022-11-20T01:33:26.603Z,12
2022-11-20T01:35:57.005Z,12
2022-11-20T01:38:27.999Z,12
2022-11-20T01:40:59.650Z,16
2022-11-20T01:43:31.075Z,12
2022-11-20T01:46:03.195Z,12
2022-11-20T01:48:34.087Z,12
2022-11-20T01:51:05.621Z,12
2022-11-20T01:53:36.103Z,23
2022-11-20T01:56:07.284Z,22
2022-11-20T01:58:37.667Z,24
2022-11-20T02:01:08.646Z,16
2022-11-20T02:03:39.517Z,19
2022-11-20T02:06:14.179Z,16
2022-11-20T02:08:45.285Z,16
2022-11-20T02:11:20.590Z,16
2022-11-20T02:13:52.198Z,20
2022-11-20T02:16:22.501Z,20
2022-11-20T02:18:54.285Z,20
2022-11-20T02:21:25.090Z,16
2022-11-20T02:23:59.613Z,18
2022-11-20T02:26:29.974Z,20
2022-11-20T02:29:03.613Z,20
2022-11-20T02:31:34.811Z,20
2022-11-20T02:34:06.561Z,22
2022-11-20T02:36:38.865Z,24
2022-11-20T02:39:12.798Z,24
2022-11-20T02:41:43.601Z,18
2022-11-20T02:44:14.405Z,20
2022-11-20T02:46:45.885Z,22
2022-11-20T02:49:16.620Z,20
2022-11-20T02:51:47.451Z,20
2022-11-20T02:54:18.780Z,20
2022-11-20T02:56:50.401Z,21
2022-11-20T02:59:20.292Z,20
2022-11-20T03:01:52.376Z,22
2022-11-20T03:04:23.216Z,23
2022-11-20T03:06:54.686Z,23
2022-11-20T03:09:26.167Z,20
2022-11-20T03:11:57.143Z,20
2022-11-20T03:14:28.478Z,24
2022-11-20T03:16:59.638Z,24
2022-11-20T03:19:31.362Z,24
2022-11-20T03:22:02.450Z,20
2022-11-20T03:24:33.862Z,24
2022-11-20T03:27:05.419Z,24
2022-11-20T03:29:36.688Z,21
2022-11-20T03:32:07.979Z,24
2022-11-20T03:34:38.888Z,23
2022-11-20T03:37:10.440Z,20
2022-11-20T03:39:41.659Z,20
2022-11-20T03:42:12.955Z,23
2022-11-20T03:44:44.461Z,22
2022-11-20T03:47:15.448Z,20
2022-11-20T03:49:46.960Z,20
2022-11-20T03:52:18.158Z,21
2022-11-20T03:54:49.597Z,20
2022-11-20T03:57:20.807Z,24
2022-11-20T03:59:52.441Z,20
2022-11-20T04:02:23.644Z,22
2022-11-20T04:04:54.893Z,20
2022-11-20T04:07:26.529Z,20
2022-11-20T04:09:57.883Z,20
2022-11-20T04:12:29.323Z,20
2022-11-20T04:15:00.736Z,20
2022-11-20T04:17:31.753Z,21
2022-11-20T04:20:03.166Z,20
2022-11-20T04:22:32.811Z,22
2022-11-20T04:25:03.879Z,24
2022-11-20T04:27:35.106Z,27
2022-11-20T04:30:06.725Z,24
2022-11-20T04:32:37.741Z,24
2022-11-20T04:35:08.792Z,24
2022-11-20T04:37:39.891Z,24
2022-11-20T04:40:11.361Z,24
2022-11-20T04:42:43.078Z,24
2022-11-20T04:45:14.757Z,24
2022-11-20T04:47:45.952Z,24
2022-11-20T04:50:17.402Z,24
2022-11-20T04:52:48.947Z,24
2022-11-20T04:55:20.186Z,20
2022-11-20T04:57:51.311Z,20
2022-11-20T05:00:22.381Z,24
2022-11-20T05:02:53.696Z,24
2022-11-20T05:05:24.351Z,20
2022-11-20T05:07:55.101Z,24
2022-11-20T05:10:25.664Z,24
2022-11-20T05:12:57.040Z,24
2022-11-20T05:15:33.989Z,24
2022-11-20T05:18:05.019Z,24
2022-11-20T05:20:36.290Z,24
2022-11-20T05:23:07.407Z,24
2022-11-20T05:25:38.767Z,24
2022-11-20T05:28:09.664Z,24
2022-11-20T05:30:41.477Z,24
2022-11-20T05:33:12.965Z,24
2022-11-20T05:35:44.081Z,24
2022-11-20T05:38:15.728Z,24
2022-11-20T05:40:46.993Z,24
2022-11-20T05:43:18.510Z,24
2022-11-20T05:45:50.082Z,25
2022-11-20T05:48:20.923Z,24
2022-11-20T05:50:52.264Z,24
2022-11-20T05:53:23.210Z,24
2022-11-20T05:55:54.302Z,26
2022-11-20T05:58:25.182Z,24
2022-11-20T06:00:56.499Z,24
2022-11-20T06:03:27.821Z,28
2022-11-20T06:05:58.693Z,26
2022-11-20T06:08:29.676Z,24
2022-11-20T06:11:00.268Z,24
2022-11-20T06:13:30.649Z,24
2022-11-20T06:16:01.193Z,24
2022-11-20T06:18:32.706Z,24
2022-11-20T06:21:02.808Z,24
2022-11-20T06:23:34.060Z,25
2022-11-20T06:26:04.992Z,28
2022-11-20T06:28:36.163Z,25
2022-11-20T06:31:07.220Z,24
2022-11-20T06:33:41.089Z,25
2022-11-20T06:36:16.639Z,24
2022-11-20T06:38:48.087Z,24
2022-11-20T06:41:19.616Z,24
2022-11-20T06:43:59.512Z,24
2022-11-20T06:46:31.120Z,24
2022-11-20T06:49:01.976Z,26
2022-11-20T06:51:30.874Z,24
2022-11-20T06:54:05.404Z,24
2022-11-20T06:56:36.330Z,24
2022-11-20T06:59:07.626Z,23
2022-11-20T07:01:38.332Z,22
2022-11-20T07:04:09.146Z,24
2022-11-20T07:06:40.330Z,23
2022-11-20T07:09:12.799Z,23
2022-11-20T07:11:41.802Z,24
2022-11-20T07:14:13.123Z,24
2022-11-20T07:16:44.109Z,24
2022-11-20T07:19:15.472Z,24
2022-11-20T07:21:46.095Z,24
2022-11-20T07:24:17.124Z,24
2022-11-20T07:26:47.806Z,24
2022-11-20T07:29:18.745Z,23
2022-11-20T07:31:50.648Z,22
2022-11-20T07:34:21.499Z,24
2022-11-20T07:36:52.799Z,24
2022-11-20T07:39:23.587Z,24
2022-11-20T07:41:54.317Z,24
2022-11-20T07:44:24.508Z,24
2022-11-20T07:46:55.137Z,33
2022-11-20T07:49:26.263Z,23
2022-11-20T07:52:00.460Z,24
2022-11-20T07:54:27.275Z,23
2022-11-20T07:56:58.766Z,24
2022-11-20T07:59:29.730Z,24
2022-11-20T08:02:00.760Z,23
2022-11-20T08:04:31.292Z,20
2022-11-20T08:07:05.947Z,19
2022-11-20T08:09:36.949Z,18
2022-11-20T08:12:06.042Z,36
2022-11-20T08:14:37.371Z,26
2022-11-20T08:17:08.021Z,20
2022-11-20T08:19:38.702Z,16
2022-11-20T08:22:09.286Z,16
2022-11-20T08:24:39.914Z,24
2022-11-20T08:27:09.070Z,24
2022-11-20T08:29:43.419Z,24
2022-11-20T08:32:14.222Z,16
2022-11-20T08:34:45.897Z,16
2022-11-20T08:37:17.356Z,24
2022-11-20T08:39:46.567Z,24
2022-11-20T08:42:17.937Z,22
2022-11-20T08:44:49.253Z,20
2022-11-20T08:47:20.418Z,19
2022-11-20T08:49:52.871Z,20
2022-11-20T08:52:24.411Z,20
2022-11-20T08:54:55.558Z,21
2022-11-20T08:57:26.880Z,24
2022-11-20T09:00:05.834Z,24
2022-11-20T09:02:30.103Z,32
2022-11-20T09:05:01.127Z,39
2022-11-20T09:07:32.247Z,28
2022-11-20T09:10:22.953Z,32
2022-11-20T09:12:35.177Z,24
2022-11-20T09:15:06.920Z,24
2022-11-20T09:17:37.933Z,28
2022-11-20T09:20:09.632Z,24
2022-11-20T09:22:41.032Z,20
2022-11-20T09:25:14.549Z,20
2022-11-20T09:27:45.440Z,20
2022-11-20T09:30:17.224Z,37
2022-11-20T09:32:48.922Z,24
2022-11-20T09:35:20.291Z,24
2022-11-20T09:37:51.219Z,20
2022-11-20T09:40:22.595Z,24
2022-11-20T09:42:53.920Z,24
2022-11-20T09:45:25.291Z,24
2022-11-20T09:47:56.330Z,20
2022-11-20T09:50:28.233Z,20
2022-11-20T09:52:59.531Z,22
2022-11-20T09:55:31.549Z,20
2022-11-20T09:58:03.848Z,20
2022-11-20T10:00:35.589Z,22
2022-11-20T10:03:06.948Z,21
2022-11-20T10:05:38.080Z,24
2022-11-20T10:08:09.812Z,24
2022-11-20T10:10:43.904Z,20
2022-11-20T10:13:13.219Z,24
2022-11-20T10:15:44.982Z,24
2022-11-20T10:18:16.579Z,24
2022-11-20T10:20:48.232Z,24
2022-11-20T10:23:24.410Z,24
2022-11-20T10:25:51.022Z,23
2022-11-20T10:28:22.285Z,24
2022-11-20T10:30:54.241Z,24
2022-11-20T10:33:24.906Z,25
2022-11-20T10:35:57.559Z,24
2022-11-20T10:38:29.779Z,26
2022-11-20T10:41:00.869Z,28
2022-11-20T10:43:32.201Z,27
2022-11-20T10:46:04.106Z,31
2022-11-20T10:48:35.227Z,35
2022-11-20T10:51:07.771Z,27
2022-11-20T10:53:39.763Z,33
2022-11-20T10:56:11.081Z,28
2022-11-20T10:58:43.017Z,28
2022-11-20T11:01:14.120Z,28
2022-11-20T11:03:46.047Z,28
2022-11-20T11:06:16.995Z,24
2022-11-20T11:08:48.690Z,28
2022-11-20T11:11:27.281Z,28
2022-11-20T11:13:58.508Z,28
2022-11-20T11:16:29.805Z,26
2022-11-20T11:19:01.277Z,27
2022-11-20T11:21:32.928Z,25
2022-11-20T11:24:20.089Z,24
2022-11-20T11:26:37.306Z,24
2022-11-20T11:29:08.080Z,28
2022-11-20T11:31:39.781Z,25
2022-11-20T11:34:10.780Z,27
2022-11-20T11:36:41.910Z,28
2022-11-20T11:39:13.582Z,28
2022-11-20T11:41:44.751Z,32
2022-11-20T11:44:15.977Z,28
2022-11-20T11:46:47.637Z,28
2022-11-20T11:49:19.287Z,28
2022-11-20T11:51:51.522Z,28
2022-11-20T11:54:22.953Z,32
2022-11-20T11:56:54.608Z,32
2022-11-20T11:59:25.804Z,32
2022-11-20T12:01:56.948Z,36
2022-11-20T12:04:28.421Z,38
2022-11-20T12:07:00.398Z,33
2022-11-20T12:09:32.892Z,33
2022-11-20T12:12:07.352Z,32
2022-11-20T12:14:41.595Z,32
2022-11-20T12:17:14.825Z,32
2022-11-20T12:19:47.238Z,28
2022-11-20T12:22:21.589Z,28
2022-11-20T12:24:52.436Z,28
2022-11-20T12:27:23.326Z,34
2022-11-20T12:29:54.728Z,28
2022-11-20T12:32:25.784Z,28
2022-11-20T12:34:56.616Z,29
2022-11-20T12:37:28.233Z,28
2022-11-20T12:39:59.545Z,28
2022-11-20T12:42:31.060Z,28
2022-11-20T12:45:02.582Z,24
2022-11-20T12:47:32.802Z,29
2022-11-20T12:50:04.847Z,28
2022-11-20T12:52:36.572Z,32
2022-11-20T12:55:08.091Z,28
2022-11-20T12:57:39.002Z,36
2022-11-20T13:00:10.293Z,36
2022-11-20T13:02:41.736Z,32
2022-11-20T13:05:14.535Z,30
2022-11-20T13:07:45.857Z,32
2022-11-20T13:10:16.643Z,28
2022-11-20T13:12:47.758Z,32
2022-11-20T13:15:18.745Z,32
2022-11-20T13:17:50.085Z,28
2022-11-20T13:20:21.479Z,32
2022-11-20T13:22:53.110Z,32
2022-11-20T13:25:25.299Z,29
2022-11-20T13:27:58.463Z,32
2022-11-20T13:30:28.568Z,36
2022-11-20T13:32:59.549Z,34
2022-11-20T13:35:30.704Z,28
2022-11-20T13:38:01.715Z,28
2022-11-20T13:40:31.410Z,28
2022-11-20T13:43:02.446Z,32
2022-11-20T13:45:33.200Z,33
2022-11-20T13:48:04.136Z,32
2022-11-20T13:50:38.450Z,31
2022-11-20T13:53:09.414Z,32
2022-11-20T13:55:40.162Z,29
2022-11-20T13:58:11.113Z,36
2022-11-20T14:00:43.071Z,32
2022-11-20T14:03:14.466Z,30
2022-11-20T14:05:51.317Z,30
2022-11-20T14:08:21.954Z,28
2022-11-20T14:10:53.306Z,29
2022-11-20T14:13:29.080Z,36
2022-11-20T14:16:00.664Z,32
2022-11-20T14:18:32.042Z,33
2022-11-20T14:21:03.106Z,32
2022-11-20T14:23:34.310Z,32
2022-11-20T14:26:06.257Z,32
2022-11-20T14:28:37.636Z,29
2022-11-20T14:31:08.796Z,28
2022-11-20T14:33:39.731Z,29
2022-11-20T14:36:10.637Z,24
2022-11-20T14:38:43.150Z,28
2022-11-20T14:41:13.724Z,25
2022-11-20T14:43:44.380Z,28
2022-11-20T14:46:16.804Z,28
2022-11-20T14:48:48.041Z,32
2022-11-20T14:51:19.173Z,24
2022-11-20T14:53:50.025Z,24
2022-11-20T14:56:22.356Z,24
2022-11-20T14:58:52.606Z,27
2022-11-20T15:01:24.384Z,24
2022-11-20T15:03:55.551Z,25
2022-11-20T15:06:27.167Z,28
2022-11-20T15:09:00.375Z,28
2022-11-20T15:11:29.968Z,38
2022-11-20T15:14:01.287Z,35
2022-11-20T15:16:32.731Z,32
2022-11-20T15:19:03.880Z,32
2022-11-20T15:21:34.947Z,31
2022-11-20T15:24:06.501Z,36
2022-11-20T15:26:37.960Z,47
2022-11-20T15:29:07.962Z,29
2022-11-20T15:31:39.221Z,31
2022-11-20T15:34:10.027Z,28
2022-11-20T15:36:41.271Z,30
2022-11-20T15:39:13.329Z,36
2022-11-20T15:41:44.846Z,38
2022-11-20T15:44:16.232Z,36
2022-11-20T15:46:47.271Z,32
2022-11-20T15:49:18.216Z,24
2022-11-20T15:51:49.514Z,26
2022-11-20T15:54:21.011Z,28
2022-11-20T15:56:52.782Z,24
2022-11-20T15:59:23.944Z,24
2022-11-20T16:01:54.935Z,23
2022-11-20T16:04:26.066Z,25
2022-11-20T16:06:56.851Z,24
2022-11-20T16:09:29.322Z,24
2022-11-20T16:12:02.390Z,20
2022-11-20T16:14:33.558Z,24
2022-11-20T16:17:04.353Z,24
2022-11-20T16:19:35.409Z,22
2022-11-20T16:22:07.029Z,24
2022-11-20T16:24:38.033Z,25
2022-11-20T16:27:08.915Z,25
2022-11-20T16:29:40.202Z,28
2022-11-20T16:32:11.512Z,28
2022-11-20T16:34:41.612Z,28
2022-11-20T16:37:13.496Z,28
2022-11-20T16:39:45.688Z,28
2022-11-20T16:42:16.701Z,28
2022-11-20T16:44:46.780Z,31
2022-11-20T16:47:17.766Z,28
2022-11-20T16:49:49.383Z,28
2022-11-20T16:52:19.983Z,31
2022-11-20T16:54:51.416Z,32
2022-11-20T16:57:22.443Z,32
2022-11-20T16:59:53.594Z,32
2022-11-20T17:02:24.452Z,32
2022-11-20T17:04:55.416Z,33
2022-11-20T17:07:26.658Z,32
2022-11-20T17:09:58.184Z,32
2022-11-20T17:12:31.235Z,29
2022-11-20T17:15:02.760Z,28
2022-11-20T17:17:34.062Z,28
2022-11-20T17:20:04.271Z,28
2022-11-20T17:22:35.541Z,24
2022-11-20T17:25:06.863Z,27
2022-11-20T17:27:38.340Z,32
2022-11-20T17:30:09.282Z,28
2022-11-20T17:32:40.221Z,29
2022-11-20T17:35:11.561Z,28
2022-11-20T17:37:43.348Z,28
2022-11-20T17:40:14.462Z,29
2022-11-20T17:42:45.641Z,27
2022-11-20T17:45:16.446Z,32
2022-11-20T17:47:47.555Z,32
2022-11-20T17:50:18.940Z,28
2022-11-20T17:52:50.173Z,28
2022-11-20T17:55:20.926Z,28
2022-11-20T17:57:53.057Z,25
2022-11-20T18:00:27.107Z,36
2022-11-20T18:03:00.368Z,33
2022-11-20T18:05:29.900Z,28
2022-11-20T18:08:01.001Z,25
2022-11-20T18:10:31.946Z,28
2022-11-20T18:13:03.009Z,28
2022-11-20T18:15:33.958Z,28
2022-11-20T18:18:04.892Z,28
2022-11-20T18:20:39.738Z,32
2022-11-20T18:23:07.370Z,32
2022-11-20T18:25:38.552Z,34
2022-11-20T18:28:09.460Z,32
2022-11-20T18:30:40.393Z,36
2022-11-20T18:33:11.257Z,36
2022-11-20T18:35:42.009Z,36
2022-11-20T18:38:13.626Z,38
2022-11-20T18:40:44.914Z,40
2022-11-20T18:43:16.265Z,36
2022-11-20T18:45:47.369Z,39
2022-11-20T18:48:18.639Z,36
2022-11-20T18:50:49.758Z,36
2022-11-20T18:53:19.876Z,36
2022-11-20T18:55:50.860Z,36
2022-11-20T18:58:21.786Z,36
2022-11-20T19:00:53.346Z,36
2022-11-20T19:03:24.273Z,33
2022-11-20T19:05:55.717Z,35
2022-11-20T19:08:26.944Z,35
2022-11-20T19:10:58.223Z,36
2022-11-20T19:13:29.339Z,36
2022-11-20T19:16:00.383Z,36
2022-11-20T19:18:31.781Z,35
2022-11-20T19:21:02.714Z,36
2022-11-20T19:23:33.504Z,36
2022-11-20T19:26:04.525Z,35
2022-11-20T19:28:35.441Z,34
2022-11-20T19:31:06.332Z,32
2022-11-20T19:33:37.343Z,32
2022-11-20T19:36:08.624Z,32
2022-11-20T19:38:47.755Z,32
2022-11-20T19:41:15.306Z,32
2022-11-20T19:43:46.166Z,32
2022-11-20T19:46:16.969Z,32
2022-11-20T19:48:51.954Z,32
2022-11-20T19:51:23.917Z,28
2022-11-20T19:53:54.902Z,32
2022-11-20T19:56:26.256Z,28
2022-11-20T19:58:57.810Z,28
2022-11-20T20:01:28.961Z,28
2022-11-20T20:04:00.461Z,28
2022-11-20T20:06:31.805Z,29
2022-11-20T20:09:03.004Z,28
2022-11-20T20:11:37.437Z,27
2022-11-20T20:14:10.359Z,28
2022-11-20T20:16:42.312Z,28
2022-11-20T20:19:14.269Z,28
2022-11-20T20:21:46.555Z,32
2022-11-20T20:24:17.626Z,36
2022-11-20T20:26:49.158Z,28
2022-11-20T20:29:20.236Z,32
2022-11-20T20:31:51.766Z,32
2022-11-20T20:34:22.576Z,36
2022-11-20T20:36:51.896Z,32
2022-11-20T20:39:23.741Z,32
2022-11-20T20:41:56.852Z,33
2022-11-20T20:44:28.951Z,31
2022-11-20T20:47:00.221Z,32
2022-11-20T20:49:31.382Z,32
2022-11-20T20:52:02.377Z,32
2022-11-20T20:54:34.562Z,32
2022-11-20T20:57:05.363Z,32
2022-11-20T20:59:36.225Z,28
2022-11-20T21:02:07.371Z,30
2022-11-20T21:04:38.874Z,32
2022-11-20T21:07:10.323Z,32
2022-11-20T21:09:41.308Z,32
2022-11-20T21:12:12.258Z,31
2022-11-20T21:14:44.169Z,32
2022-11-20T21:17:15.631Z,28
2022-11-20T21:19:46.495Z,28
2022-11-20T21:22:17.469Z,28
2022-11-20T21:24:51.872Z,28
2022-11-20T21:27:22.949Z,29
2022-11-20T21:32:30.609Z,28
2022-11-20T21:35:03.104Z,28
2022-11-20T21:37:40.847Z,28
2022-11-20T21:40:09.580Z,29
2022-11-20T21:42:41.187Z,32
2022-11-20T21:45:13.156Z,32
2022-11-20T21:47:44.272Z,32
2022-11-20T21:50:15.473Z,32
2022-11-20T21:52:46.897Z,31
2022-11-20T21:55:17.914Z,32
2022-11-20T21:57:48.940Z,32
2022-11-20T22:00:20.183Z,32
2022-11-20T22:02:52.150Z,32
2022-11-20T22:05:22.989Z,32
2022-11-20T22:07:55.146Z,31
2022-11-20T22:10:26.348Z,32
2022-11-20T22:12:58.009Z,28
2022-11-20T22:15:53.428Z,28
2022-11-20T22:20:31.398Z,28
2022-11-20T22:23:02.744Z,28
2022-11-20T22:25:33.724Z,32
2022-11-20T22:28:04.791Z,28
2022-11-20T22:30:36.240Z,32
2022-11-20T22:33:13.207Z,32
2022-11-20T22:35:38.847Z,36
2022-11-20T22:38:09.766Z,30
2022-11-20T22:40:40.938Z,32
2022-11-20T22:43:11.794Z,29
2022-11-20T22:45:43.422Z,32
2022-11-20T22:48:14.512Z,29
2022-11-20T22:50:45.527Z,32
2022-11-20T22:53:16.494Z,32
2022-11-20T22:55:48.184Z,32
2022-11-20T22:58:19.422Z,28
2022-11-20T23:00:50.708Z,32
2022-11-20T23:03:22.888Z,32
2022-11-20T23:05:54.251Z,29
2022-11-20T23:08:25.332Z,32
2022-11-20T23:10:56.880Z,28
2022-11-20T23:13:28.187Z,32
2022-11-20T23:15:59.132Z,28
2022-11-20T23:18:30.723Z,28
2022-11-20T23:21:01.453Z,29
2022-11-20T23:23:32.140Z,30
2022-11-20T23:26:04.340Z,30
2022-11-20T23:28:34.964Z,32
2022-11-20T23:31:05.142Z,28
2022-11-20T23:33:36.512Z,25
2022-11-20T23:36:06.665Z,28
2022-11-20T23:38:37.695Z,28
2022-11-20T23:41:08.594Z,28
2022-11-20T23:43:39.641Z,27
2022-11-20T23:46:13.845Z,28
2022-11-20T23:48:41.266Z,28
2022-11-20T23:51:11.469Z,28
2022-11-20T23:53:42.016Z,28
2022-11-20T23:56:13.983Z,27
2022-11-20T23:58:44.464Z,28
